Flight Track Log - Related Links

Times and Time Zones

All times are in EDT time to prevent confusion due to time zone crossing. See the AAL672 flight status page for this flight to view local times or setup timezone preferences in your user account.

Time Position Orientation Groundspeed Altitude Reporting Facility
EDT Latitude Longitude Course Direction KTS MPH feet Rate Location/Type
Sun 04:20:55 PM 18.3333 -64.9500 281° West 170 196 1,100  Level San Juan Center
Sun 04:21:55 PM 18.2833 -64.9333 162° South 200 230 3,000 2,430 Climbing San Juan Center
Sun 04:22:56 PM 18.2500 -65.0167 247° West 290 334 6,000 3,025 Climbing San Juan Center
Sun 04:23:00 PM 18.2990 -65.3202 283° West  Level FlightAware Approximate
Sun 04:23:56 PM 18.2500 -65.1000 270° West 270 311 9,100  Level San Juan Center
Sun 04:24:00 PM 18.3242 -65.4376 282° West  Level FlightAware Approximate
Sun 04:24:56 PM 18.2833 -65.1833 293° West 320 368 10,400  Level San Juan Center
Sun 04:25:00 PM 18.3477 -65.5553 282° West  Level FlightAware Approximate
Sun 04:25:57 PM 18.3500 -65.2500 316° Northwest 360 414 12,400  Level San Juan Center
Sun 04:26:00 PM 18.3764 -65.6714 281° West  Level FlightAware Approximate
Sun 04:26:57 PM 18.4333 -65.3167 323° Northwest 360 414 14,400  Level San Juan Center
Sun 04:27:57 PM 18.5000 -65.3833 317° Northwest 390 449 16,000 1,736 Climbing San Juan Center
Sun 04:28:58 PM 18.5500 -65.4833 298° West 390 449 17,900 1,736 Climbing San Juan Center
Sun 04:29:58 PM 18.6333 -65.5833 311° West 420 483 19,500 1,450 Climbing San Juan Center
Sun 04:30:58 PM 18.6833 -65.6833 298° West 410 472 20,800 1,587 Climbing San Juan Center
Sun 04:31:59 PM 18.7500 -65.7833 305° West 430 495 22,700 1,785 Climbing San Juan Center
Sun 04:32:59 PM 18.8333 -65.9000 307° West 440 506 24,400 1,650 Climbing San Juan Center
Sun 04:33:59 PM 18.9000 -66.0000 305° West 460 529 26,000 1,650 Climbing San Juan Center
Sun 04:34:59 PM 18.9833 -66.1167 307° West 470 541 27,700 1,587 Climbing San Juan Center
Sun 04:36:00 PM 19.0500 -66.2333 301° West 470 541 29,200 1,190 Climbing San Juan Center
Sun 04:37:00 PM 19.1333 -66.3500 307° West 480 552 30,100 1,300 Climbing San Juan Center
Sun 04:38:00 PM 19.2167 -66.4667 307° West 490 564 31,800 1,636 Climbing San Juan Center
Sun 04:39:01 PM 19.2833 -66.5833 301° West 470 541 33,400 1,587 Climbing San Juan Center
Sun 04:40:01 PM 19.3500 -66.7000 301° West 480 552 35,000 1,300 Climbing San Juan Center
Sun 04:41:01 PM 19.4333 -66.8167 307° West 470 541 36,000 500 Climbing San Juan Center
Sun 04:42:01 PM 19.5167 -66.9333 307° West 470 541 36,000  Level San Juan Center
Sun 04:44:02 PM 19.6500 -67.1500 303° West 460 529 36,000  Level San Juan Center
Sun 04:45:02 PM 19.7000 -67.2500 298° West 440 506 36,000  Level San Juan Center
Sun 04:46:03 PM 19.7667 -67.3667 301° West 450 518 36,000  Level San Juan Center
Sun 04:47:03 PM 19.8500 -67.4833 307° West 450 518 36,000  Level San Juan Center
Sun 04:48:03 PM 19.9167 -67.5833 305° West 460 529 36,000  Level San Juan Center
Sun 04:49:03 PM 19.9833 -67.7000 301° West 450 518 36,000  Level San Juan Center
Sun 04:50:04 PM 20.0667 -67.8000 312° West 450 518 36,000  Level San Juan Center
Sun 04:51:04 PM 20.1333 -67.9167 301° West 460 529 36,000  Level San Juan Center
Sun 04:52:19 PM 20.2436 -68.0842 305° West 562 647 36,000  Level Miami Center
Sun 04:53:19 PM 20.3042 -68.1992 299° West 473 544 36,000  Level Miami Center
Sun 04:54:19 PM 20.3647 -68.3147 299° West 468 539 36,000  Level Miami Center
Sun 04:55:19 PM 20.4233 -68.4347 298° West 462 532 36,000  Level Miami Center
Sun 04:56:19 PM 20.4817 -68.5503 298° West 457 526 36,000  Level Miami Center
Sun 04:57:19 PM 20.5378 -68.6683 297° West 457 526 36,000  Level Miami Center
Sun 04:58:19 PM 20.5981 -68.7864 299° West 457 526 36,000  Level Miami Center
Sun 04:59:19 PM 20.6564 -68.9069 297° West 457 526 36,000  Level Miami Center
Sun 05:00:19 PM 20.7147 -69.0275 297° West 457 526 36,000  Level Miami Center
Sun 05:01:19 PM 20.7706 -69.1481 296° West 457 526 36,000  Level Miami Center
Sun 05:02:19 PM 20.8286 -69.2667 298° West 457 526 36,000  Level Miami Center
Sun 05:03:19 PM 20.8844 -69.3878 296° West 457 526 36,000  Level Miami Center
Sun 05:04:19 PM 20.9422 -69.5064 298° West 457 526 36,000  Level Miami Center
Sun 05:05:19 PM 20.9978 -69.6233 297° West 457 526 36,000  Level Miami Center
Sun 05:06:19 PM 21.0533 -69.7403 297° West 451 519 36,000  Level Miami Center
Sun 05:07:19 PM 21.1108 -69.8614 297° West 451 519 36,000  Level Miami Center
Sun 05:08:19 PM 21.1683 -69.9786 298° West 451 519 36,000  Level Miami Center
Sun 05:09:19 PM 21.2236 -70.0981 296° West 457 526 36,000  Level Miami Center
Sun 05:10:19 PM 21.2831 -70.2172 298° West 457 526 36,000  Level Miami Center
Sun 05:11:19 PM 21.3403 -70.3369 297° West 457 526 36,000  Level Miami Center
Sun 05:12:19 PM 21.3994 -70.4564 298° West 457 526 36,000  Level Miami Center
Sun 05:13:19 PM 21.4544 -70.5764 296° West 457 526 36,000  Level Miami Center
Sun 05:14:19 PM 21.5136 -70.7006 297° West 457 526 36,000  Level Miami Center
Sun 05:15:19 PM 21.5708 -70.8228 297° West 457 526 36,000  Level Miami Center
Sun 05:16:19 PM 21.6300 -70.9494 297° West 457 526 36,000  Level Miami Center
Sun 05:17:19 PM 21.6889 -71.0717 297° West 462 532 36,000  Level Miami Center
Sun 05:18:19 PM 21.7458 -71.1989 296° West 462 532 36,000  Level Miami Center
Sun 05:19:19 PM 21.8044 -71.3236 297° West 462 532 36,000  Level Miami Center
Sun 05:20:19 PM 21.8611 -71.4464 296° West 462 532 36,000  Level Miami Center
Sun 05:21:19 PM 21.9153 -71.5672 296° West 462 532 36,000  Level Miami Center
Sun 05:22:19 PM 21.9717 -71.6903 296° West 456 525 36,000  Level Miami Center
Sun 05:23:19 PM 22.0258 -71.8089 296° West 456 525 36,000  Level Miami Center
Sun 05:24:19 PM 22.0819 -71.9300 297° West 456 525 36,000  Level Miami Center
Sun 05:25:19 PM 22.1358 -72.0489 296° West 456 525 36,000  Level Miami Center
Sun 05:26:31 PM 22.2031 -72.1944 297° West 456 525 36,000  Level Miami Center
Sun 05:27:31 PM 22.2569 -72.3158 296° West 456 525 36,000  Level Miami Center
Sun 05:28:31 PM 22.3147 -72.4394 297° West 456 525 36,000  Level Miami Center
Sun 05:29:31 PM 22.3706 -72.5611 296° West 456 525 36,000  Level Miami Center
Sun 05:30:31 PM 22.4261 -72.6872 296° West 461 531 36,000  Level Miami Center
Sun 05:31:31 PM 22.4794 -72.8089 295° West 455 524 36,000  Level Miami Center
Sun 05:32:31 PM 22.5350 -72.9331 296° West 455 524 36,000  Level Miami Center
Sun 05:33:31 PM 22.5906 -73.0597 295° West 455 524 36,000  Level Miami Center
Sun 05:34:31 PM 22.6411 -73.1683 297° West 456 525 36,000  Level Miami Center
Sun 05:35:31 PM 22.6986 -73.2950 296° West 456 525 36,000  Level Miami Center
Sun 05:36:31 PM 22.7536 -73.4219 295° West 461 531 36,000  Level Miami Center
Sun 05:37:31 PM 22.8108 -73.5489 296° West 461 531 36,000  Level Miami Center
Sun 05:38:31 PM 22.8658 -73.6758 295° West 461 531 36,000  Level Miami Center
Sun 05:39:31 PM 22.9186 -73.8008 295° West 461 531 36,000  Level Miami Center
Sun 05:40:31 PM 22.9753 -73.9189 298° West 455 524 36,000  Level Miami Center
Sun 05:41:31 PM 23.0256 -74.0419 294° West 450 518 36,000  Level Miami Center
Sun 05:42:31 PM 23.0800 -74.1583 297° West 445 512 36,000  Level Miami Center
Sun 05:43:31 PM 23.1300 -74.2814 294° West 439 505 36,000  Level Miami Center
Sun 05:44:31 PM 23.1800 -74.3978 295° West 439 505 36,000  Level Miami Center
Sun 05:45:31 PM 23.2342 -74.5189 296° West 439 505 36,000  Level Miami Center
Sun 05:46:31 PM 23.2861 -74.6356 296° West 439 505 36,000  Level Miami Center
Sun 05:47:31 PM 23.3381 -74.7567 295° West 439 505 36,000  Level Miami Center
Sun 05:48:31 PM 23.3983 -74.8869 297° West 439 505 36,000  Level Miami Center
Sun 05:49:31 PM 23.4481 -75.0064 294° West 439 505 36,000  Level Miami Center
Sun 05:50:31 PM 23.4997 -75.1303 294° West 439 505 36,000  Level Miami Center
Sun 05:51:31 PM 23.5489 -75.2361 297° West 439 505 36,000  Level Miami Center
Sun 05:52:31 PM 23.6003 -75.3556 295° West 439 505 36,000  Level Miami Center
Sun 05:53:31 PM 23.6536 -75.4750 296° West 439 505 36,000  Level Miami Center
Sun 05:54:31 PM 23.7092 -75.5925 297° West 439 505 36,000  Level Miami Center
Sun 05:55:31 PM 23.7603 -75.7147 295° West 439 505 36,000  Level Miami Center
Sun 05:56:31 PM 23.8111 -75.8344 295° West 439 505 36,000  Level Miami Center
Sun 05:57:31 PM 23.8622 -75.9500 296° West 439 505 36,000  Level Miami Center
Sun 05:58:31 PM 23.9108 -76.0700 294° West 439 505 36,000  Level Miami Center
Sun 05:59:31 PM 23.9617 -76.1881 295° West 439 505 36,000  Level Miami Center
Sun 06:00:31 PM 24.0103 -76.3128 293° West 439 505 36,000  Level Miami Center
Sun 06:01:31 PM 24.0608 -76.4311 295° West 439 505 36,000  Level Miami Center
Sun 06:02:31 PM 24.1133 -76.5536 295° West 439 505 36,000  Level Miami Center
Sun 06:03:31 PM 24.1617 -76.6744 294° West 439 505 36,000  Level Miami Center
Sun 06:04:31 PM 24.2139 -76.7950 295° West 439 505 36,000  Level Miami Center
Sun 06:05:31 PM 24.2619 -76.9181 293° West 439 505 36,000  Level Miami Center
Sun 06:06:31 PM 24.3058 -77.0436 291° West 439 505 36,000  Level Miami Center
Sun 06:07:31 PM 24.2806 -77.1733 258° West 421 484 36,000  Level Miami Center
Sun 06:08:31 PM 24.2008 -77.2872 233° Southwest 416 479 36,000  Level Miami Center
Sun 06:09:31 PM 24.1753 -77.4169 258° West 435 501 36,000  Level Miami Center
Sun 06:10:31 PM 24.2292 -77.5311 297° West 402 463 36,000  Level Miami Center
Sun 06:11:31 PM 24.2933 -77.6569 299° West 412 474 36,000  Level Miami Center
Sun 06:12:31 PM 24.3575 -77.7736 301° West 427 491 36,000  Level Miami Center
Sun 06:13:31 PM 24.4194 -77.8906 300° West 440 506 36,000  Level Miami Center
Sun 06:14:31 PM 24.4814 -78.0050 301° West 446 513 36,000  Level Miami Center
Sun 06:15:31 PM 24.5450 -78.1244 300° West 446 513 36,000  Level Miami Center
Sun 06:16:31 PM 24.6069 -78.2347 302° West 440 506 36,000  Level Miami Center
Sun 06:17:31 PM 24.6706 -78.3500 301° West 440 506 36,000  Level Miami Center
Sun 06:18:31 PM 24.7300 -78.4603 301° West 440 506 36,000 -450 Level Miami Center
Sun 06:19:31 PM 24.7914 -78.5781 300° West 440 506 35,100 -1,700 Descending Miami Center
Sun 06:20:31 PM 24.8528 -78.6933 300° West 440 506 32,600 -2,600 Descending Miami Center
Sun 06:21:31 PM 24.9139 -78.8111 300° West 440 506 29,900 -2,500 Descending Miami Center
Sun 06:22:31 PM 24.9750 -78.9267 300° West 440 506 27,600 -2,150 Descending Miami Center
Sun 06:23:31 PM 25.0319 -79.0286 302° West 440 506 25,600 -2,200 Descending Miami Center
Sun 06:24:31 PM 25.0867 -79.1397 299° West 427 491 23,200 -2,250 Descending Miami Center
Sun 06:25:31 PM 25.1436 -79.2464 301° West 415 478 21,100 -2,100 Descending Miami Center
Sun 06:26:31 PM 25.1961 -79.3506 299° West 410 472 19,000 -2,017 Descending Miami Center
Sun 06:27:30 PM 25.2547 -79.4644 300° West 380 437 17,100 -2,050 Descending Miami Center
Sun 06:28:31 PM 25.3053 -79.5619 300° West 363 418 14,900 -2,016 Descending Miami Center
Sun 06:29:32 PM 25.3536 -79.6597 299° West 354 407 13,000 -1,700 Descending Miami Center
Sun 06:30:31 PM 25.3981 -79.7367 303° West 355 409 11,500 -1,412 Descending Miami Center
Sun 06:31:31 PM 25.4508 -79.8183 306° West 341 392 10,200 -1,000 Descending Miami Center
Sun 06:32:31 PM 25.4972 -79.8931 305° West 316 364 9,500 -700 Descending Miami Center
Sun 06:33:31 PM 25.5442 -79.9564 309° West 289 333 8,800 -714 Descending Miami Center
Sun 06:34:37 PM 25.5883 -80.0314 303° West 242 278 8,000 -450 Descending Miami Center
Sun 06:35:31 PM 25.6231 -80.0761 311° West 250 288 7,900 -53 Descending Miami Center
Sun 06:36:31 PM 25.6592 -80.1369 303° West 245 282 7,900 -89 Level Miami Center
Sun 06:37:46 PM 25.6822 -80.2297 285° West 217 250 7,700 -574 Descending Miami Center
Sun 06:38:47 PM 25.6975 -80.2925 285° West 216 249 6,600 -1,082 Descending Miami Center
Sun 06:39:48 PM 25.7042 -80.3617 276° West 216 249 5,500 -1,086 Descending Miami Center
Sun 06:40:43 PM 25.7047 -80.4217 271° West 215 247 4,500 -828 Descending Miami Center
Sun 06:41:44 PM 25.7033 -80.4886 269° West 210 242 3,900 -634 Descending Miami Center
Sun 06:42:46 PM 25.7144 -80.5419 283° West 193 222 3,200 -439 Descending Miami Center
Sun 06:43:47 PM 25.7586 -80.5317 12° North 179 206 3,000 -197 Descending Miami Center
Sun 06:44:48 PM 25.7786 -80.4817 66° East 180 207 2,800 -563 Descending Miami Center
Sun 06:45:55 PM 25.7800 -80.4239 88° East 167 192 1,800 -797 Descending Miami Center
Sun 06:46:56 PM 25.7789 -80.3800 92° East 132 152 1,100 -672 Descending Miami Center
Sun 06:47:51 PM 25.7819 -80.3433 85° East 129 148 500 -655 Descending Miami Center

Login

Don't have an account? Register now (free) for customized features, flight alerts, and more!